createdAt,value
2022-10-08T00:01:10.979Z,0
2022-10-08T00:06:12.480Z,0
2022-10-08T00:11:14.123Z,0
2022-10-08T00:16:16.109Z,0
2022-10-08T00:21:17.965Z,0
2022-10-08T00:26:19.971Z,0
2022-10-08T00:31:21.720Z,0
2022-10-08T00:36:23.457Z,0
2022-10-08T00:41:25.149Z,0
2022-10-08T00:46:26.902Z,0
2022-10-08T00:51:28.551Z,0
2022-10-08T00:56:31.046Z,0.88715
2022-10-08T01:01:32.734Z,0
2022-10-08T01:06:34.386Z,0
2022-10-08T01:11:36.272Z,0
2022-10-08T01:16:37.948Z,0
2022-10-08T01:21:39.653Z,0
2022-10-08T01:26:41.729Z,0
2022-10-08T01:31:43.550Z,0
2022-10-08T01:36:45.344Z,0
2022-10-08T01:41:47.345Z,0
2022-10-08T01:46:49.084Z,0.88715
2022-10-08T01:51:50.817Z,0
2022-10-08T01:56:52.799Z,0
2022-10-08T02:01:54.563Z,0
2022-10-08T02:06:56.360Z,0
2022-10-08T02:11:58.108Z,0
2022-10-08T02:16:59.887Z,0
2022-10-08T02:22:01.619Z,0
2022-10-08T02:27:03.816Z,0.88715
2022-10-08T02:32:05.484Z,0
2022-10-08T02:37:07.185Z,0
2022-10-08T02:42:09.059Z,0.88715
2022-10-08T02:47:10.735Z,0
2022-10-08T02:52:12.238Z,0
2022-10-08T02:57:14.298Z,0.88715
2022-10-08T03:02:15.773Z,0
2022-10-08T03:07:17.317Z,0
2022-10-08T03:12:19.064Z,0.88715
2022-10-08T03:17:20.539Z,0.88715
2022-10-08T03:22:22.193Z,1.16185
2022-10-08T03:27:25.110Z,1.53075
2022-10-08T03:32:26.597Z,2.01475
2022-10-08T03:37:28.222Z,4.59225
2022-10-08T03:42:29.820Z,11.93225
2022-10-08T03:47:31.370Z,16.8934
2022-10-08T03:52:33.025Z,24.3627
2022-10-08T03:57:35.575Z,43.87455
2022-10-08T04:02:37.063Z,44.87095
2022-10-08T04:07:38.612Z,65.91355
2022-10-08T04:12:40.199Z,80.9073
2022-10-08T04:17:41.848Z,100.17955
2022-10-08T04:22:43.297Z,115.1733
2022-10-08T04:27:45.119Z,143.187
2022-10-08T04:32:47.087Z,159.3426
2022-10-08T04:37:49.220Z,177.63745
2022-10-08T04:42:51.049Z,203.82565
2022-10-08T04:47:52.614Z,226.23355
2022-10-08T04:52:54.371Z,246.55735
2022-10-08T04:57:56.030Z,261.6804
2022-10-08T05:02:57.786Z,287.57385
2022-10-08T05:07:59.287Z,305.8687
2022-10-08T05:13:01.017Z,322.09845
2022-10-08T05:18:02.523Z,336.2288
2022-10-08T05:23:04.123Z,367.7299
2022-10-08T05:28:05.996Z,376.5645
2022-10-08T05:33:07.770Z,404.8748
2022-10-08T05:38:09.251Z,410.83235
2022-10-08T05:43:11.079Z,458.6355
2022-10-08T05:48:12.890Z,489.56425
2022-10-08T05:53:14.503Z,529.43605
2022-10-08T05:58:16.294Z,541.3873
2022-10-08T06:03:18.052Z,537.0861
2022-10-08T06:08:19.792Z,566.3548
2022-10-08T06:13:21.532Z,557.5962
2022-10-08T06:18:23.258Z,601.08285
2022-10-08T06:23:24.978Z,620.1345
2022-10-08T06:28:26.727Z,635.64545
2022-10-08T06:33:28.371Z,651.6356
2022-10-08T06:38:30.037Z,661.76135
2022-10-08T06:43:31.848Z,677.56705
2022-10-08T06:48:33.606Z,701.10065
2022-10-08T06:53:35.175Z,691.1422
2022-10-08T06:58:36.897Z,727.45615
2022-10-08T07:03:38.392Z,752.57565
2022-10-08T07:08:39.924Z,762.3325
2022-10-08T07:13:41.447Z,761.9826
2022-10-08T07:18:43.276Z,795.49365
2022-10-08T07:23:44.726Z,814.12125
2022-10-08T07:28:47.553Z,827.36365
2022-10-08T07:33:49.309Z,830.59245
2022-10-08T07:38:50.946Z,840.90265
2022-10-08T07:43:52.715Z,874.4137
2022-10-08T07:48:54.490Z,885.7013
2022-10-08T07:54:01.463Z,883.34145
2022-10-08T07:59:04.706Z,867.7582
2022-10-08T08:04:06.431Z,932.8978
2022-10-08T08:09:08.055Z,949.99465
2022-10-08T08:14:09.844Z,955.7126
2022-10-08T08:19:11.480Z,944.14925
2022-10-08T08:24:13.104Z,1047.07655
2022-10-08T08:29:15.135Z,1003.6089
2022-10-08T08:34:16.799Z,1040.16245
2022-10-08T08:39:18.475Z,1078.24675
2022-10-08T08:44:20.320Z,1060.5794
2022-10-08T08:49:22.089Z,1137.76155
2022-10-08T08:54:23.907Z,1098.68455
2022-10-08T08:59:25.897Z,1130.84745
2022-10-08T09:04:27.665Z,1176.3269
2022-10-08T09:09:29.461Z,1192.5015
2022-10-08T09:14:31.510Z,1211.555
2022-10-08T09:19:33.329Z,1198.0197
2022-10-08T09:24:35.075Z,1253.38345
2022-10-08T09:29:37.033Z,1252.14745
2022-10-08T09:34:38.760Z,1279.57165
2022-10-08T09:39:40.495Z,1189.403
2022-10-08T09:44:42.163Z,1180.06465
2022-10-08T09:49:44.111Z,1266.2208
2022-10-08T09:54:45.905Z,1374.0161
2022-10-08T09:59:48.941Z,1353.0115
2022-10-08T10:04:50.686Z,1172.9851
2022-10-08T10:09:52.463Z,1243.2118
2022-10-08T10:14:54.354Z,1361.6751
2022-10-08T10:19:56.086Z,1543.30185
2022-10-08T10:24:57.914Z,1504.88295
2022-10-08T10:29:59.865Z,1562.23765
2022-10-08T10:35:01.565Z,1606.02275
2022-10-08T10:40:03.258Z,1611.33565
2022-10-08T10:45:05.075Z,1372.77035
2022-10-08T10:50:06.778Z,896.1682
2022-10-08T10:55:08.423Z,1216.0425
2022-10-08T11:00:10.496Z,1513.2022
2022-10-08T11:05:12.360Z,1724.27655
2022-10-08T11:10:14.130Z,1769.7903
2022-10-08T11:15:15.940Z,1746.07225
2022-10-08T11:20:17.657Z,1743.04875
2022-10-08T11:25:19.248Z,1656.11345
2022-10-08T11:30:21.427Z,1257.91415
2022-10-08T11:35:23.196Z,1260.68645
2022-10-08T11:40:24.843Z,1491.48805
2022-10-08T11:45:26.496Z,1036.46285
2022-10-08T11:50:27.991Z,877.60685
2022-10-08T11:55:29.611Z,830.7584
2022-10-08T12:00:31.760Z,1308.58545
2022-10-08T12:05:33.522Z,1601.89255
2022-10-08T12:10:35.183Z,1731.35425
2022-10-08T12:15:36.745Z,1738.0459
2022-10-08T12:20:38.891Z,1698.87205
2022-10-08T12:25:40.560Z,1611.82275
2022-10-08T12:30:42.464Z,1630.24505
2022-10-08T12:35:44.131Z,1545.0041
2022-10-08T12:40:45.935Z,1451.0787
2022-10-08T12:45:47.698Z,1160.88825
2022-10-08T12:50:49.723Z,869.05305
2022-10-08T12:55:51.480Z,615.7003
2022-10-08T13:00:53.780Z,454.2926
2022-10-08T13:05:55.541Z,409.84755
2022-10-08T13:10:57.433Z,448.006
2022-10-08T13:15:59.473Z,552.7778
2022-10-08T13:21:01.104Z,1042.9825
2022-10-08T13:26:02.807Z,1175.5474
2022-10-08T13:31:04.875Z,1294.46115
2022-10-08T13:36:06.780Z,1164.45955
2022-10-08T13:41:08.510Z,1063.24745
2022-10-08T13:46:10.024Z,1040.56195
2022-10-08T13:51:11.632Z,1035.63695
2022-10-08T13:56:13.239Z,988.4233
2022-10-08T14:01:15.378Z,853.84845
2022-10-08T14:06:17.081Z,735.3912
2022-10-08T14:11:18.755Z,633.67955
2022-10-08T14:16:20.482Z,528.955
2022-10-08T14:21:22.196Z,499.2432
2022-10-08T14:26:23.733Z,459.8794
2022-10-08T14:31:25.567Z,356.04095
2022-10-08T14:36:27.998Z,341.23955
2022-10-08T14:41:29.723Z,303.8569
2022-10-08T14:46:31.467Z,253.1767
2022-10-08T14:51:32.922Z,227.70915
2022-10-08T14:56:34.374Z,232.98405
2022-10-08T15:01:36.350Z,300.73055
2022-10-08T15:06:38.202Z,297.29355
2022-10-08T15:11:39.811Z,231.86575
2022-10-08T15:16:41.830Z,254.13695
2022-10-08T15:21:43.774Z,181.25415
2022-10-08T15:26:45.294Z,140.6807
2022-10-08T15:31:47.252Z,113.865
2022-10-08T15:36:48.916Z,92.01045
2022-10-08T15:41:50.514Z,81.97785
2022-10-08T15:46:54.880Z,73.16225
2022-10-08T15:52:00.310Z,57.00665
2022-10-08T15:57:01.848Z,41.33025
2022-10-08T16:02:03.843Z,28.162
2022-10-08T16:07:05.349Z,15.3075
2022-10-08T16:12:07.037Z,7.8382
2022-10-08T16:17:08.782Z,7.7089
2022-10-08T16:22:10.440Z,1.83695
2022-10-08T16:27:12.077Z,1.53075
2022-10-08T16:32:14.034Z,1.16185
2022-10-08T16:37:15.712Z,0.88715
2022-10-08T16:42:17.396Z,0
2022-10-08T16:47:19.339Z,0.88715
2022-10-08T16:52:20.770Z,0.88715
2022-10-08T16:57:22.514Z,0
2022-10-08T17:02:26.050Z,0
2022-10-08T17:07:28.823Z,0.88715
2022-10-08T17:12:30.591Z,0.88715
2022-10-08T17:17:32.418Z,0
2022-10-08T17:22:34.309Z,0
2022-10-08T17:27:36.166Z,0.88715
2022-10-08T17:32:38.137Z,0
2022-10-08T17:37:40.088Z,0.88715
2022-10-08T17:42:41.833Z,0.88715
2022-10-08T17:47:43.965Z,0.88715
2022-10-08T17:52:46.125Z,0.88715
2022-10-08T17:57:48.150Z,0.88715
2022-10-08T18:02:50.705Z,0.88715
2022-10-08T18:07:52.898Z,0.88715
2022-10-08T18:12:54.654Z,0
2022-10-08T18:17:56.473Z,0.88715
2022-10-08T18:22:58.198Z,0.88715
2022-10-08T18:27:59.928Z,0.88715
2022-10-08T18:33:02.041Z,0.88715
2022-10-08T18:38:03.767Z,0.88715
2022-10-08T18:43:05.495Z,0.88715
2022-10-08T18:48:07.165Z,0.88715
2022-10-08T18:53:08.965Z,0.88715
2022-10-08T18:58:10.435Z,0.88715
2022-10-08T19:03:12.702Z,0
2022-10-08T19:08:14.360Z,0
2022-10-08T19:13:15.981Z,0.88715
2022-10-08T19:18:17.752Z,0.88715
2022-10-08T19:23:19.420Z,0
2022-10-08T19:28:21.168Z,0
2022-10-08T19:33:23.296Z,0.88715
2022-10-08T19:38:25.085Z,0
2022-10-08T19:43:26.719Z,0.88715
2022-10-08T19:48:28.406Z,0
2022-10-08T19:53:30.105Z,0
2022-10-08T19:58:31.813Z,0
2022-10-08T20:03:33.908Z,0
2022-10-08T20:08:35.527Z,0
2022-10-08T20:13:37.199Z,0.88715
2022-10-08T20:18:39.414Z,0.88715
2022-10-08T20:23:41.149Z,0
2022-10-08T20:28:43.309Z,0.88715
2022-10-08T20:33:45.341Z,0
2022-10-08T20:38:47.066Z,0
2022-10-08T20:43:48.768Z,0.88715
2022-10-08T20:48:50.589Z,0
2022-10-08T20:53:52.344Z,0.88715
2022-10-08T20:58:54.101Z,0.88715
2022-10-08T21:03:56.079Z,0.88715
2022-10-08T21:08:57.799Z,0.88715
2022-10-08T21:13:59.604Z,0.88715
2022-10-08T21:19:01.412Z,0
2022-10-08T21:24:03.250Z,0
2022-10-08T21:29:04.971Z,0.88715
2022-10-08T21:34:07.186Z,0.88715
2022-10-08T21:39:09.558Z,0.88715
2022-10-08T21:44:11.218Z,0.88715
2022-10-08T21:49:12.734Z,0
2022-10-08T21:54:14.382Z,0.88715
2022-10-08T21:59:16.109Z,0
2022-10-08T22:04:17.880Z,0.88715
2022-10-08T22:09:19.635Z,0
2022-10-08T22:14:21.364Z,0.88715
2022-10-08T22:19:22.808Z,0.88715
2022-10-08T22:24:24.805Z,0.88715
2022-10-08T22:29:26.503Z,0.88715
2022-10-08T22:34:28.509Z,0
2022-10-08T22:39:30.232Z,0.88715
2022-10-08T22:44:31.960Z,0.88715
2022-10-08T22:49:33.758Z,0
2022-10-08T22:54:36.060Z,0
2022-10-08T22:59:37.821Z,0
2022-10-08T23:04:39.946Z,0
2022-10-08T23:09:41.611Z,0
2022-10-08T23:14:43.273Z,0
2022-10-08T23:19:44.986Z,0
2022-10-08T23:24:46.739Z,0.88715
2022-10-08T23:29:48.388Z,0.88715
2022-10-08T23:34:50.273Z,0.88715
2022-10-08T23:39:57.050Z,0.88715
2022-10-08T23:44:59.611Z,0
2022-10-08T23:50:01.461Z,0
2022-10-08T23:55:03.208Z,0.88715
